sensor_id;sensor_type;location;lat;lon;timestamp;P1;durP1;ratioP1;P2;durP2;ratioP2
49071;SDS011;74284;52.610;10.236;2023-11-21T00:01:24;29.98;;;9.05;;
49071;SDS011;74284;52.610;10.236;2023-11-21T00:03:50;35.90;;;9.38;;
49071;SDS011;74284;52.610;10.236;2023-11-21T00:06:15;30.48;;;9.02;;
49071;SDS011;74284;52.610;10.236;2023-11-21T00:11:06;24.80;;;9.00;;
49071;SDS011;74284;52.610;10.236;2023-11-21T00:13:31;28.40;;;9.75;;
49071;SDS011;74284;52.610;10.236;2023-11-21T00:15:57;30.98;;;9.77;;
49071;SDS011;74284;52.610;10.236;2023-11-21T00:20:48;35.63;;;10.15;;
49071;SDS011;74284;52.610;10.236;2023-11-21T00:25:39;40.53;;;11.25;;
49071;SDS011;74284;52.610;10.236;2023-11-21T00:30:30;36.35;;;9.93;;
49071;SDS011;74284;52.610;10.236;2023-11-21T00:35:22;30.02;;;9.13;;
49071;SDS011;74284;52.610;10.236;2023-11-21T00:37:47;26.52;;;8.82;;
49071;SDS011;74284;52.610;10.236;2023-11-21T00:40:14;28.17;;;10.30;;
49071;SDS011;74284;52.610;10.236;2023-11-21T00:45:06;28.10;;;9.40;;
49071;SDS011;74284;52.610;10.236;2023-11-21T00:49:57;30.33;;;10.07;;
49071;SDS011;74284;52.610;10.236;2023-11-21T00:52:22;25.75;;;8.80;;
49071;SDS011;74284;52.610;10.236;2023-11-21T00:54:47;24.08;;;9.43;;
49071;SDS011;74284;52.610;10.236;2023-11-21T00:59:38;22.15;;;8.30;;
49071;SDS011;74284;52.610;10.236;2023-11-21T01:04:30;30.27;;;9.63;;
49071;SDS011;74284;52.610;10.236;2023-11-21T01:06:56;27.98;;;9.35;;
49071;SDS011;74284;52.610;10.236;2023-11-21T01:11:47;41.97;;;11.38;;
49071;SDS011;74284;52.610;10.236;2023-11-21T01:14:12;28.02;;;9.50;;
49071;SDS011;74284;52.610;10.236;2023-11-21T01:16:38;23.65;;;8.82;;
49071;SDS011;74284;52.610;10.236;2023-11-21T01:19:03;35.17;;;10.35;;
49071;SDS011;74284;52.610;10.236;2023-11-21T01:21:29;29.00;;;9.80;;
49071;SDS011;74284;52.610;10.236;2023-11-21T01:26:21;27.00;;;9.05;;
49071;SDS011;74284;52.610;10.236;2023-11-21T01:28:46;35.05;;;10.40;;
49071;SDS011;74284;52.610;10.236;2023-11-21T01:31:13;24.48;;;9.25;;
49071;SDS011;74284;52.610;10.236;2023-11-21T01:36:04;22.50;;;9.95;;
49071;SDS011;74284;52.610;10.236;2023-11-21T01:38:30;28.80;;;10.35;;
49071;SDS011;74284;52.610;10.236;2023-11-21T01:40:57;27.73;;;10.38;;
49071;SDS011;74284;52.610;10.236;2023-11-21T01:45:47;25.77;;;10.32;;
49071;SDS011;74284;52.610;10.236;2023-11-21T01:48:13;24.10;;;9.35;;
49071;SDS011;74284;52.610;10.236;2023-11-21T01:53:04;33.67;;;11.40;;
49071;SDS011;74284;52.610;10.236;2023-11-21T01:55:31;37.50;;;10.52;;
49071;SDS011;74284;52.610;10.236;2023-11-21T01:57:58;23.58;;;10.43;;
49071;SDS011;74284;52.610;10.236;2023-11-21T02:00:25;24.23;;;10.07;;
49071;SDS011;74284;52.610;10.236;2023-11-21T02:02:53;36.25;;;11.63;;
49071;SDS011;74284;52.610;10.236;2023-11-21T02:07:44;33.80;;;11.45;;
49071;SDS011;74284;52.610;10.236;2023-11-21T02:10:12;32.60;;;11.52;;
49071;SDS011;74284;52.610;10.236;2023-11-21T02:12:40;41.50;;;12.20;;
49071;SDS011;74284;52.610;10.236;2023-11-21T02:15:12;35.95;;;11.27;;
49071;SDS011;74284;52.610;10.236;2023-11-21T02:17:51;42.05;;;12.85;;
49071;SDS011;74284;52.610;10.236;2023-11-21T02:20:18;25.33;;;10.95;;
49071;SDS011;74284;52.610;10.236;2023-11-21T02:22:52;44.67;;;12.73;;
49071;SDS011;74284;52.610;10.236;2023-11-21T02:25:28;36.05;;;11.63;;
49071;SDS011;74284;52.610;10.236;2023-11-21T02:27:57;34.17;;;11.95;;
49071;SDS011;74284;52.610;10.236;2023-11-21T02:30:25;42.97;;;12.52;;
49071;SDS011;74284;52.610;10.236;2023-11-21T02:37:46;30.40;;;11.82;;
49071;SDS011;74284;52.610;10.236;2023-11-21T02:42:37;43.70;;;14.23;;
49071;SDS011;74284;52.610;10.236;2023-11-21T02:45:03;48.80;;;14.02;;
49071;SDS011;74284;52.610;10.236;2023-11-21T02:47:30;45.80;;;13.40;;
49071;SDS011;74284;52.610;10.236;2023-11-21T02:52:21;33.75;;;12.90;;
49071;SDS011;74284;52.610;10.236;2023-11-21T02:57:11;45.53;;;11.93;;
49071;SDS011;74284;52.610;10.236;2023-11-21T03:02:02;35.78;;;12.38;;
49071;SDS011;74284;52.610;10.236;2023-11-21T03:04:27;46.50;;;14.40;;
49071;SDS011;74284;52.610;10.236;2023-11-21T03:06:53;42.78;;;13.57;;
49071;SDS011;74284;52.610;10.236;2023-11-21T03:11:43;32.17;;;12.52;;
49071;SDS011;74284;52.610;10.236;2023-11-21T03:14:08;34.38;;;13.45;;
49071;SDS011;74284;52.610;10.236;2023-11-21T03:19:00;33.13;;;12.95;;
49071;SDS011;74284;52.610;10.236;2023-11-21T03:21:25;27.52;;;12.60;;
49071;SDS011;74284;52.610;10.236;2023-11-21T03:23:51;31.48;;;12.85;;
49071;SDS011;74284;52.610;10.236;2023-11-21T03:26:17;43.28;;;13.30;;
49071;SDS011;74284;52.610;10.236;2023-11-21T03:31:08;51.30;;;14.10;;
49071;SDS011;74284;52.610;10.236;2023-11-21T03:33:34;29.50;;;12.23;;
49071;SDS011;74284;52.610;10.236;2023-11-21T03:36:00;29.35;;;12.18;;
49071;SDS011;74284;52.610;10.236;2023-11-21T03:40:51;28.65;;;11.45;;
49071;SDS011;74284;52.610;10.236;2023-11-21T03:43:16;21.65;;;10.85;;
49071;SDS011;74284;52.610;10.236;2023-11-21T03:48:06;29.65;;;12.10;;
49071;SDS011;74284;52.610;10.236;2023-11-21T03:50:32;34.08;;;13.50;;
49071;SDS011;74284;52.610;10.236;2023-11-21T03:52:58;36.17;;;12.85;;
49071;SDS011;74284;52.610;10.236;2023-11-21T03:55:23;29.23;;;12.65;;
49071;SDS011;74284;52.610;10.236;2023-11-21T03:57:49;26.85;;;11.40;;
49071;SDS011;74284;52.610;10.236;2023-11-21T04:00:16;26.05;;;11.88;;
49071;SDS011;74284;52.610;10.236;2023-11-21T04:05:07;26.98;;;12.20;;
49071;SDS011;74284;52.610;10.236;2023-11-21T04:07:34;41.67;;;13.55;;
49071;SDS011;74284;52.610;10.236;2023-11-21T04:12:25;27.75;;;12.35;;
49071;SDS011;74284;52.610;10.236;2023-11-21T04:14:50;25.05;;;11.93;;
49071;SDS011;74284;52.610;10.236;2023-11-21T04:19:42;33.70;;;12.07;;
49071;SDS011;74284;52.610;10.236;2023-11-21T04:22:08;30.45;;;12.05;;
49071;SDS011;74284;52.610;10.236;2023-11-21T04:24:33;31.50;;;12.38;;
49071;SDS011;74284;52.610;10.236;2023-11-21T04:29:24;28.92;;;12.45;;
49071;SDS011;74284;52.610;10.236;2023-11-21T04:31:49;44.20;;;12.55;;
49071;SDS011;74284;52.610;10.236;2023-11-21T04:36:39;23.35;;;9.32;;
49071;SDS011;74284;52.610;10.236;2023-11-21T04:39:05;7.75;;;4.22;;
49071;SDS011;74284;52.610;10.236;2023-11-21T04:41:31;7.13;;;3.70;;
49071;SDS011;74284;52.610;10.236;2023-11-21T04:46:22;6.80;;;2.97;;
49071;SDS011;74284;52.610;10.236;2023-11-21T04:48:47;6.13;;;3.10;;
49071;SDS011;74284;52.610;10.236;2023-11-21T04:51:12;4.68;;;2.65;;
49071;SDS011;74284;52.610;10.236;2023-11-21T04:53:38;4.47;;;3.00;;
49071;SDS011;74284;52.610;10.236;2023-11-21T04:56:04;5.40;;;2.85;;
49071;SDS011;74284;52.610;10.236;2023-11-21T05:00:57;6.97;;;3.67;;
49071;SDS011;74284;52.610;10.236;2023-11-21T05:03:22;6.25;;;3.53;;
49071;SDS011;74284;52.610;10.236;2023-11-21T05:05:48;8.00;;;3.83;;
49071;SDS011;74284;52.610;10.236;2023-11-21T05:08:14;7.18;;;4.40;;
49071;SDS011;74284;52.610;10.236;2023-11-21T05:10:39;9.38;;;4.95;;
49071;SDS011;74284;52.610;10.236;2023-11-21T05:13:04;9.02;;;5.40;;
49071;SDS011;74284;52.610;10.236;2023-11-21T05:15:34;9.50;;;5.72;;
49071;SDS011;74284;52.610;10.236;2023-11-21T05:18:00;9.13;;;5.72;;
49071;SDS011;74284;52.610;10.236;2023-11-21T05:20:25;11.00;;;6.15;;
49071;SDS011;74284;52.610;10.236;2023-11-21T05:22:50;11.20;;;6.10;;
49071;SDS011;74284;52.610;10.236;2023-11-21T05:25:16;9.07;;;5.95;;
49071;SDS011;74284;52.610;10.236;2023-11-21T05:27:45;11.35;;;7.20;;
49071;SDS011;74284;52.610;10.236;2023-11-21T05:30:11;14.02;;;7.10;;
49071;SDS011;74284;52.610;10.236;2023-11-21T05:32:39;10.88;;;7.00;;
49071;SDS011;74284;52.610;10.236;2023-11-21T05:35:05;11.45;;;7.18;;
49071;SDS011;74284;52.610;10.236;2023-11-21T05:37:37;10.98;;;6.97;;
49071;SDS011;74284;52.610;10.236;2023-11-21T05:40:03;10.25;;;6.85;;
49071;SDS011;74284;52.610;10.236;2023-11-21T05:42:31;15.43;;;8.48;;
49071;SDS011;74284;52.610;10.236;2023-11-21T05:44:57;10.07;;;6.93;;
49071;SDS011;74284;52.610;10.236;2023-11-21T05:47:24;12.25;;;7.22;;
49071;SDS011;74284;52.610;10.236;2023-11-21T05:49:51;11.70;;;6.85;;
49071;SDS011;74284;52.610;10.236;2023-11-21T05:52:17;12.85;;;7.53;;
49071;SDS011;74284;52.610;10.236;2023-11-21T05:54:42;11.82;;;6.63;;
49071;SDS011;74284;52.610;10.236;2023-11-21T05:59:34;13.48;;;8.75;;
49071;SDS011;74284;52.610;10.236;2023-11-21T06:01:59;14.57;;;9.05;;
49071;SDS011;74284;52.610;10.236;2023-11-21T06:04:24;15.68;;;9.00;;
49071;SDS011;74284;52.610;10.236;2023-11-21T06:06:51;16.05;;;9.35;;
49071;SDS011;74284;52.610;10.236;2023-11-21T06:09:17;17.42;;;10.10;;
49071;SDS011;74284;52.610;10.236;2023-11-21T06:11:42;15.25;;;9.38;;
49071;SDS011;74284;52.610;10.236;2023-11-21T06:14:07;16.83;;;10.18;;
49071;SDS011;74284;52.610;10.236;2023-11-21T06:16:34;15.20;;;9.88;;
49071;SDS011;74284;52.610;10.236;2023-11-21T06:19:00;16.48;;;10.30;;
49071;SDS011;74284;52.610;10.236;2023-11-21T06:21:26;18.17;;;11.05;;
49071;SDS011;74284;52.610;10.236;2023-11-21T06:23:51;15.95;;;10.38;;
49071;SDS011;74284;52.610;10.236;2023-11-21T06:26:18;17.85;;;10.52;;
49071;SDS011;74284;52.610;10.236;2023-11-21T06:28:43;16.88;;;10.82;;
49071;SDS011;74284;52.610;10.236;2023-11-21T06:31:09;18.02;;;10.73;;
49071;SDS011;74284;52.610;10.236;2023-11-21T06:33:35;18.17;;;10.80;;
49071;SDS011;74284;52.610;10.236;2023-11-21T06:36:01;20.98;;;11.68;;
49071;SDS011;74284;52.610;10.236;2023-11-21T06:38:29;16.08;;;10.95;;
49071;SDS011;74284;52.610;10.236;2023-11-21T06:40:58;21.92;;;11.82;;
49071;SDS011;74284;52.610;10.236;2023-11-21T06:43:23;18.48;;;11.30;;
49071;SDS011;74284;52.610;10.236;2023-11-21T06:45:49;19.05;;;11.05;;
49071;SDS011;74284;52.610;10.236;2023-11-21T06:48:14;18.48;;;11.13;;
49071;SDS011;74284;52.610;10.236;2023-11-21T06:50:40;16.40;;;10.35;;
49071;SDS011;74284;52.610;10.236;2023-11-21T06:53:06;16.65;;;10.45;;
49071;SDS011;74284;52.610;10.236;2023-11-21T06:55:32;19.48;;;11.63;;
49071;SDS011;74284;52.610;10.236;2023-11-21T06:57:58;19.52;;;11.57;;
49071;SDS011;74284;52.610;10.236;2023-11-21T07:00:25;17.05;;;10.93;;
49071;SDS011;74284;52.610;10.236;2023-11-21T07:02:52;16.88;;;10.15;;
49071;SDS011;74284;52.610;10.236;2023-11-21T07:05:18;21.95;;;12.05;;
49071;SDS011;74284;52.610;10.236;2023-11-21T07:07:46;23.35;;;12.50;;
49071;SDS011;74284;52.610;10.236;2023-11-21T07:10:11;19.77;;;11.60;;
49071;SDS011;74284;52.610;10.236;2023-11-21T07:12:36;21.27;;;12.07;;
49071;SDS011;74284;52.610;10.236;2023-11-21T07:15:02;16.85;;;11.05;;
49071;SDS011;74284;52.610;10.236;2023-11-21T07:17:30;18.95;;;10.75;;
49071;SDS011;74284;52.610;10.236;2023-11-21T07:19:56;17.92;;;11.65;;
49071;SDS011;74284;52.610;10.236;2023-11-21T07:22:21;20.30;;;12.52;;
49071;SDS011;74284;52.610;10.236;2023-11-21T07:24:50;17.50;;;10.70;;
49071;SDS011;74284;52.610;10.236;2023-11-21T07:27:19;14.77;;;10.45;;
49071;SDS011;74284;52.610;10.236;2023-11-21T07:29:44;17.65;;;10.57;;
49071;SDS011;74284;52.610;10.236;2023-11-21T07:32:10;15.63;;;10.95;;
49071;SDS011;74284;52.610;10.236;2023-11-21T07:34:36;18.27;;;12.15;;
49071;SDS011;74284;52.610;10.236;2023-11-21T07:37:01;15.23;;;10.40;;
49071;SDS011;74284;52.610;10.236;2023-11-21T07:39:27;12.90;;;8.40;;
49071;SDS011;74284;52.610;10.236;2023-11-21T07:41:53;18.83;;;9.20;;
49071;SDS011;74284;52.610;10.236;2023-11-21T07:44:19;14.43;;;9.70;;
49071;SDS011;74284;52.610;10.236;2023-11-21T07:46:45;14.48;;;9.68;;
49071;SDS011;74284;52.610;10.236;2023-11-21T07:49:10;14.02;;;9.93;;
49071;SDS011;74284;52.610;10.236;2023-11-21T07:51:35;16.23;;;10.63;;
49071;SDS011;74284;52.610;10.236;2023-11-21T07:54:01;15.27;;;10.02;;
49071;SDS011;74284;52.610;10.236;2023-11-21T07:56:26;15.73;;;9.77;;
49071;SDS011;74284;52.610;10.236;2023-11-21T07:58:52;13.77;;;9.40;;
49071;SDS011;74284;52.610;10.236;2023-11-21T08:01:17;15.85;;;10.25;;
49071;SDS011;74284;52.610;10.236;2023-11-21T08:03:42;16.85;;;11.07;;
49071;SDS011;74284;52.610;10.236;2023-11-21T08:06:09;16.02;;;9.80;;
49071;SDS011;74284;52.610;10.236;2023-11-21T08:08:34;14.88;;;9.63;;
49071;SDS011;74284;52.610;10.236;2023-11-21T08:11:00;15.15;;;9.45;;
49071;SDS011;74284;52.610;10.236;2023-11-21T08:13:27;15.35;;;9.20;;
49071;SDS011;74284;52.610;10.236;2023-11-21T08:15:54;12.02;;;7.28;;
49071;SDS011;74284;52.610;10.236;2023-11-21T08:18:21;12.45;;;8.30;;
49071;SDS011;74284;52.610;10.236;2023-11-21T08:20:46;14.20;;;9.00;;
49071;SDS011;74284;52.610;10.236;2023-11-21T08:23:13;13.32;;;8.98;;
49071;SDS011;74284;52.610;10.236;2023-11-21T08:25:40;13.23;;;8.55;;
49071;SDS011;74284;52.610;10.236;2023-11-21T08:28:07;12.18;;;8.32;;
49071;SDS011;74284;52.610;10.236;2023-11-21T08:30:32;12.88;;;8.00;;
49071;SDS011;74284;52.610;10.236;2023-11-21T08:32:58;13.93;;;8.55;;
49071;SDS011;74284;52.610;10.236;2023-11-21T08:35:23;13.60;;;8.25;;
49071;SDS011;74284;52.610;10.236;2023-11-21T08:40:18;12.88;;;8.30;;
49071;SDS011;74284;52.610;10.236;2023-11-21T08:42:45;12.43;;;8.10;;
49071;SDS011;74284;52.610;10.236;2023-11-21T08:45:11;11.40;;;7.95;;
49071;SDS011;74284;52.610;10.236;2023-11-21T08:47:37;13.98;;;9.13;;
49071;SDS011;74284;52.610;10.236;2023-11-21T08:50:03;14.90;;;8.40;;
49071;SDS011;74284;52.610;10.236;2023-11-21T08:52:31;13.50;;;7.45;;
49071;SDS011;74284;52.610;10.236;2023-11-21T08:54:56;12.27;;;8.63;;
49071;SDS011;74284;52.610;10.236;2023-11-21T08:57:22;14.73;;;8.27;;
49071;SDS011;74284;52.610;10.236;2023-11-21T08:59:48;9.35;;;6.47;;
49071;SDS011;74284;52.610;10.236;2023-11-21T09:02:13;10.17;;;7.00;;
49071;SDS011;74284;52.610;10.236;2023-11-21T09:04:38;9.25;;;6.72;;
49071;SDS011;74284;52.610;10.236;2023-11-21T09:07:04;12.57;;;7.75;;
49071;SDS011;74284;52.610;10.236;2023-11-21T09:09:29;9.65;;;7.38;;
49071;SDS011;74284;52.610;10.236;2023-11-21T09:11:55;10.18;;;7.30;;
49071;SDS011;74284;52.610;10.236;2023-11-21T09:14:20;9.68;;;6.75;;
49071;SDS011;74284;52.610;10.236;2023-11-21T09:16:45;10.00;;;7.05;;
49071;SDS011;74284;52.610;10.236;2023-11-21T09:19:11;11.15;;;7.28;;
49071;SDS011;74284;52.610;10.236;2023-11-21T09:21:39;12.52;;;8.07;;
49071;SDS011;74284;52.610;10.236;2023-11-21T09:24:04;11.88;;;8.23;;
49071;SDS011;74284;52.610;10.236;2023-11-21T09:26:30;10.85;;;7.93;;
49071;SDS011;74284;52.610;10.236;2023-11-21T09:28:55;10.97;;;7.23;;
49071;SDS011;74284;52.610;10.236;2023-11-21T09:33:47;8.63;;;6.03;;
49071;SDS011;74284;52.610;10.236;2023-11-21T09:36:13;10.73;;;7.43;;
49071;SDS011;74284;52.610;10.236;2023-11-21T09:38:39;11.52;;;7.45;;
49071;SDS011;74284;52.610;10.236;2023-11-21T09:41:06;12.77;;;8.05;;
49071;SDS011;74284;52.610;10.236;2023-11-21T09:43:42;12.55;;;8.98;;
49071;SDS011;74284;52.610;10.236;2023-11-21T09:46:11;12.00;;;8.18;;
49071;SDS011;74284;52.610;10.236;2023-11-21T09:48:44;9.75;;;7.15;;
49071;SDS011;74284;52.610;10.236;2023-11-21T09:51:15;10.75;;;8.02;;
49071;SDS011;74284;52.610;10.236;2023-11-21T09:53:42;10.65;;;8.00;;
49071;SDS011;74284;52.610;10.236;2023-11-21T09:56:11;10.68;;;7.88;;
49071;SDS011;74284;52.610;10.236;2023-11-21T09:58:36;11.73;;;7.35;;
49071;SDS011;74284;52.610;10.236;2023-11-21T10:01:02;8.60;;;6.43;;
49071;SDS011;74284;52.610;10.236;2023-11-21T10:03:32;12.18;;;7.95;;
49071;SDS011;74284;52.610;10.236;2023-11-21T10:06:01;10.93;;;7.13;;
49071;SDS011;74284;52.610;10.236;2023-11-21T10:08:28;10.65;;;6.88;;
49071;SDS011;74284;52.610;10.236;2023-11-21T10:10:54;9.77;;;6.60;;
49071;SDS011;74284;52.610;10.236;2023-11-21T10:13:20;10.80;;;7.15;;
49071;SDS011;74284;52.610;10.236;2023-11-21T10:15:49;9.63;;;6.28;;
49071;SDS011;74284;52.610;10.236;2023-11-21T10:18:17;11.00;;;7.20;;
49071;SDS011;74284;52.610;10.236;2023-11-21T10:20:42;9.82;;;6.45;;
49071;SDS011;74284;52.610;10.236;2023-11-21T10:23:09;9.23;;;6.55;;
49071;SDS011;74284;52.610;10.236;2023-11-21T10:25:36;8.65;;;6.22;;
49071;SDS011;74284;52.610;10.236;2023-11-21T10:28:02;8.00;;;5.30;;
49071;SDS011;74284;52.610;10.236;2023-11-21T10:30:35;10.40;;;5.50;;
49071;SDS011;74284;52.610;10.236;2023-11-21T10:33:02;8.02;;;5.80;;
49071;SDS011;74284;52.610;10.236;2023-11-21T10:38:15;8.38;;;5.05;;
49071;SDS011;74284;52.610;10.236;2023-11-21T10:40:46;8.82;;;5.45;;
49071;SDS011;74284;52.610;10.236;2023-11-21T10:43:13;10.20;;;5.70;;
49071;SDS011;74284;52.610;10.236;2023-11-21T10:45:40;8.38;;;5.63;;
49071;SDS011;74284;52.610;10.236;2023-11-21T10:53:00;9.07;;;5.07;;
49071;SDS011;74284;52.610;10.236;2023-11-21T10:55:29;7.55;;;4.82;;
49071;SDS011;74284;52.610;10.236;2023-11-21T10:57:58;11.07;;;7.13;;
49071;SDS011;74284;52.610;10.236;2023-11-21T11:00:24;12.07;;;6.55;;
49071;SDS011;74284;52.610;10.236;2023-11-21T11:02:52;8.75;;;6.20;;
49071;SDS011;74284;52.610;10.236;2023-11-21T11:05:21;7.55;;;4.93;;
49071;SDS011;74284;52.610;10.236;2023-11-21T11:07:51;8.27;;;4.78;;
49071;SDS011;74284;52.610;10.236;2023-11-21T11:10:30;8.48;;;5.85;;
49071;SDS011;74284;52.610;10.236;2023-11-21T11:12:56;8.27;;;5.50;;
49071;SDS011;74284;52.610;10.236;2023-11-21T11:15:22;9.35;;;5.70;;
49071;SDS011;74284;52.610;10.236;2023-11-21T11:17:48;10.43;;;6.60;;
49071;SDS011;74284;52.610;10.236;2023-11-21T11:20:15;8.32;;;6.00;;
49071;SDS011;74284;52.610;10.236;2023-11-21T11:22:44;9.73;;;5.57;;
49071;SDS011;74284;52.610;10.236;2023-11-21T11:25:25;9.18;;;6.20;;
49071;SDS011;74284;52.610;10.236;2023-11-21T11:28:14;9.05;;;6.05;;
49071;SDS011;74284;52.610;10.236;2023-11-21T11:36:06;7.05;;;5.05;;
49071;SDS011;74284;52.610;10.236;2023-11-21T11:38:38;7.82;;;4.93;;
49071;SDS011;74284;52.610;10.236;2023-11-21T11:41:04;6.68;;;4.63;;
49071;SDS011;74284;52.610;10.236;2023-11-21T11:43:34;7.28;;;5.07;;
49071;SDS011;74284;52.610;10.236;2023-11-21T11:46:09;8.18;;;5.30;;
49071;SDS011;74284;52.610;10.236;2023-11-21T11:48:38;6.63;;;4.72;;
49071;SDS011;74284;52.610;10.236;2023-11-21T11:53:39;7.20;;;4.75;;
49071;SDS011;74284;52.610;10.236;2023-11-21T11:58:50;7.85;;;4.60;;
49071;SDS011;74284;52.610;10.236;2023-11-21T12:01:17;5.47;;;4.00;;
49071;SDS011;74284;52.610;10.236;2023-11-21T12:06:40;6.78;;;4.78;;
49071;SDS011;74284;52.610;10.236;2023-11-21T12:09:07;7.82;;;4.63;;
49071;SDS011;74284;52.610;10.236;2023-11-21T12:11:48;7.60;;;5.45;;
49071;SDS011;74284;52.610;10.236;2023-11-21T12:14:14;6.78;;;4.32;;
49071;SDS011;74284;52.610;10.236;2023-11-21T12:16:40;5.88;;;4.30;;
49071;SDS011;74284;52.610;10.236;2023-11-21T12:19:06;5.72;;;4.20;;
49071;SDS011;74284;52.610;10.236;2023-11-21T12:21:31;7.32;;;5.15;;
49071;SDS011;74284;52.610;10.236;2023-11-21T12:23:58;6.50;;;4.50;;
49071;SDS011;74284;52.610;10.236;2023-11-21T12:26:26;5.85;;;4.10;;
49071;SDS011;74284;52.610;10.236;2023-11-21T12:28:52;7.55;;;4.30;;
49071;SDS011;74284;52.610;10.236;2023-11-21T12:31:24;7.03;;;4.90;;
49071;SDS011;74284;52.610;10.236;2023-11-21T12:33:49;6.72;;;4.80;;
49071;SDS011;74284;52.610;10.236;2023-11-21T12:38:41;6.88;;;4.28;;
49071;SDS011;74284;52.610;10.236;2023-11-21T12:41:07;6.28;;;4.60;;
49071;SDS011;74284;52.610;10.236;2023-11-21T12:43:33;6.60;;;4.45;;
49071;SDS011;74284;52.610;10.236;2023-11-21T12:46:06;8.48;;;4.53;;
49071;SDS011;74284;52.610;10.236;2023-11-21T12:48:34;6.63;;;4.72;;
49071;SDS011;74284;52.610;10.236;2023-11-21T12:51:07;7.68;;;4.97;;
49071;SDS011;74284;52.610;10.236;2023-11-21T12:53:34;9.05;;;5.75;;
49071;SDS011;74284;52.610;10.236;2023-11-21T12:56:07;6.75;;;5.07;;
49071;SDS011;74284;52.610;10.236;2023-11-21T12:58:34;6.85;;;4.75;;
49071;SDS011;74284;52.610;10.236;2023-11-21T13:01:00;8.40;;;4.75;;
49071;SDS011;74284;52.610;10.236;2023-11-21T13:03:28;18.00;;;5.07;;
49071;SDS011;74284;52.610;10.236;2023-11-21T13:05:54;8.95;;;4.88;;
49071;SDS011;74284;52.610;10.236;2023-11-21T13:08:22;9.32;;;5.10;;
49071;SDS011;74284;52.610;10.236;2023-11-21T13:10:49;6.68;;;4.63;;
49071;SDS011;74284;52.610;10.236;2023-11-21T13:13:16;6.82;;;4.97;;
49071;SDS011;74284;52.610;10.236;2023-11-21T13:18:14;7.00;;;5.15;;
49071;SDS011;74284;52.610;10.236;2023-11-21T13:20:40;6.80;;;4.40;;
49071;SDS011;74284;52.610;10.236;2023-11-21T13:23:09;9.07;;;5.47;;
49071;SDS011;74284;52.610;10.236;2023-11-21T13:25:37;7.57;;;5.22;;
49071;SDS011;74284;52.610;10.236;2023-11-21T13:28:04;8.18;;;5.10;;
49071;SDS011;74284;52.610;10.236;2023-11-21T13:30:30;8.68;;;5.10;;
49071;SDS011;74284;52.610;10.236;2023-11-21T13:33:02;6.88;;;5.13;;
49071;SDS011;74284;52.610;10.236;2023-11-21T13:35:31;5.80;;;4.25;;
49071;SDS011;74284;52.610;10.236;2023-11-21T13:38:07;5.78;;;4.00;;
49071;SDS011;74284;52.610;10.236;2023-11-21T13:40:34;10.07;;;4.70;;
49071;SDS011;74284;52.610;10.236;2023-11-21T13:43:07;6.22;;;4.40;;
49071;SDS011;74284;52.610;10.236;2023-11-21T13:45:35;6.32;;;3.67;;
49071;SDS011;74284;52.610;10.236;2023-11-21T13:48:01;8.80;;;4.43;;
49071;SDS011;74284;52.610;10.236;2023-11-21T13:50:28;6.57;;;3.92;;
49071;SDS011;74284;52.610;10.236;2023-11-21T13:52:58;7.72;;;4.78;;
49071;SDS011;74284;52.610;10.236;2023-11-21T13:55:29;6.45;;;4.28;;
49071;SDS011;74284;52.610;10.236;2023-11-21T13:57:54;7.30;;;4.90;;
49071;SDS011;74284;52.610;10.236;2023-11-21T14:00:19;8.10;;;4.30;;
49071;SDS011;74284;52.610;10.236;2023-11-21T14:03:08;8.48;;;4.32;;
49071;SDS011;74284;52.610;10.236;2023-11-21T14:05:41;7.63;;;4.85;;
49071;SDS011;74284;52.610;10.236;2023-11-21T14:08:08;6.35;;;4.90;;
49071;SDS011;74284;52.610;10.236;2023-11-21T14:10:38;7.07;;;4.63;;
49071;SDS011;74284;52.610;10.236;2023-11-21T14:13:08;8.70;;;5.90;;
49071;SDS011;74284;52.610;10.236;2023-11-21T14:15:35;9.35;;;4.97;;
49071;SDS011;74284;52.610;10.236;2023-11-21T14:18:06;6.22;;;4.30;;
49071;SDS011;74284;52.610;10.236;2023-11-21T14:20:35;8.10;;;4.60;;
49071;SDS011;74284;52.610;10.236;2023-11-21T14:23:02;6.35;;;4.40;;
49071;SDS011;74284;52.610;10.236;2023-11-21T14:25:29;6.97;;;4.63;;
49071;SDS011;74284;52.610;10.236;2023-11-21T14:27:54;8.48;;;4.47;;
49071;SDS011;74284;52.610;10.236;2023-11-21T14:30:21;9.00;;;5.05;;
49071;SDS011;74284;52.610;10.236;2023-11-21T14:32:47;7.82;;;4.68;;
49071;SDS011;74284;52.610;10.236;2023-11-21T14:35:13;7.63;;;4.25;;
49071;SDS011;74284;52.610;10.236;2023-11-21T14:37:39;6.88;;;4.10;;
49071;SDS011;74284;52.610;10.236;2023-11-21T14:40:04;5.65;;;4.22;;
49071;SDS011;74284;52.610;10.236;2023-11-21T14:42:32;6.82;;;4.47;;
49071;SDS011;74284;52.610;10.236;2023-11-21T14:47:28;7.05;;;4.40;;
49071;SDS011;74284;52.610;10.236;2023-11-21T14:49:53;6.30;;;4.07;;
49071;SDS011;74284;52.610;10.236;2023-11-21T14:52:22;7.32;;;4.40;;
49071;SDS011;74284;52.610;10.236;2023-11-21T14:54:59;7.20;;;4.95;;
49071;SDS011;74284;52.610;10.236;2023-11-21T14:57:50;7.53;;;4.45;;
49071;SDS011;74284;52.610;10.236;2023-11-21T15:00:17;8.13;;;5.20;;
49071;SDS011;74284;52.610;10.236;2023-11-21T15:03:01;8.95;;;5.13;;
49071;SDS011;74284;52.610;10.236;2023-11-21T15:05:28;7.22;;;5.22;;
49071;SDS011;74284;52.610;10.236;2023-11-21T15:07:54;8.15;;;4.18;;
49071;SDS011;74284;52.610;10.236;2023-11-21T15:10:22;8.00;;;5.25;;
49071;SDS011;74284;52.610;10.236;2023-11-21T15:13:03;9.15;;;5.55;;
49071;SDS011;74284;52.610;10.236;2023-11-21T15:15:28;9.20;;;5.78;;
49071;SDS011;74284;52.610;10.236;2023-11-21T15:17:55;8.43;;;4.72;;
49071;SDS011;74284;52.610;10.236;2023-11-21T15:20:20;10.25;;;5.78;;
49071;SDS011;74284;52.610;10.236;2023-11-21T15:22:47;11.88;;;6.53;;
49071;SDS011;74284;52.610;10.236;2023-11-21T15:25:12;9.55;;;5.47;;
49071;SDS011;74284;52.610;10.236;2023-11-21T15:27:38;10.27;;;6.10;;
49071;SDS011;74284;52.610;10.236;2023-11-21T15:30:04;8.25;;;5.57;;
49071;SDS011;74284;52.610;10.236;2023-11-21T15:32:30;8.07;;;5.97;;
49071;SDS011;74284;52.610;10.236;2023-11-21T15:34:55;10.98;;;7.55;;
49071;SDS011;74284;52.610;10.236;2023-11-21T15:37:21;8.68;;;6.38;;
49071;SDS011;74284;52.610;10.236;2023-11-21T15:39:46;8.88;;;5.93;;
49071;SDS011;74284;52.610;10.236;2023-11-21T15:42:11;7.68;;;5.13;;
49071;SDS011;74284;52.610;10.236;2023-11-21T15:44:37;11.43;;;8.05;;
49071;SDS011;74284;52.610;10.236;2023-11-21T15:49:29;7.32;;;5.53;;
49071;SDS011;74284;52.610;10.236;2023-11-21T15:51:59;8.73;;;5.88;;
49071;SDS011;74284;52.610;10.236;2023-11-21T15:54:25;7.20;;;5.47;;
49071;SDS011;74284;52.610;10.236;2023-11-21T15:56:52;7.15;;;4.85;;
49071;SDS011;74284;52.610;10.236;2023-11-21T15:59:20;8.07;;;5.18;;
49071;SDS011;74284;52.610;10.236;2023-11-21T16:01:47;8.88;;;5.15;;
49071;SDS011;74284;52.610;10.236;2023-11-21T16:04:13;7.53;;;5.13;;
49071;SDS011;74284;52.610;10.236;2023-11-21T16:06:45;7.95;;;4.60;;
49071;SDS011;74284;52.610;10.236;2023-11-21T16:09:12;7.50;;;4.82;;
49071;SDS011;74284;52.610;10.236;2023-11-21T16:11:51;7.60;;;5.07;;
49071;SDS011;74284;52.610;10.236;2023-11-21T16:14:19;7.10;;;4.50;;
49071;SDS011;74284;52.610;10.236;2023-11-21T16:16:49;14.50;;;5.38;;
49071;SDS011;74284;52.610;10.236;2023-11-21T16:19:15;8.13;;;4.90;;
49071;SDS011;74284;52.610;10.236;2023-11-21T16:21:40;9.57;;;5.90;;